Time;durP1;ratioP1;P1;durP2;ratioP2;P2;SDS_P1;SDS_P2;PMS_P1;PMS_P2;Temp;Humidity;BMP_temperature;BMP_pressure;BME280_temperature;BME280_humidity;BME280_pressure;Samples;Min_cycle;Max_cycle;Signal;HPM_P1;HPM_P2
2023/02/18 00:01:38;;;;;;;;;;;5.50;75.50;;;;;;5002633;28;89815;-38
2023/02/18 00:04:04;;;;;;;;;;;5.50;75.50;;;;;;5003918;28;87199;-38
2023/02/18 00:06:31;;;;;;;;;;;5.50;75.50;;;;;;5002972;28;88912;-38
2023/02/18 00:09:00;;;;;;;;;;;5.50;75.40;;;;;;5003424;28;88095;-38
2023/02/18 00:11:26;;;;;;;;;;;5.50;75.50;;;;;;5003501;28;87146;-38
2023/02/18 00:13:53;;;;;;;;;;;5.50;75.50;;;;;;5003579;28;88826;-38
2023/02/18 00:16:19;;;;;;;;;;;5.40;75.50;;;;;;5003508;28;88258;-38
2023/02/18 00:18:44;;;;;;;;;;;5.40;75.50;;;;;;5003860;28;86309;-38
2023/02/18 00:21:10;;;;;;;;;;;5.50;75.50;;;;;;5005976;28;88502;-38
2023/02/18 00:23:35;;;;;;;;;;;5.40;75.40;;;;;;5003327;28;87177;-39
2023/02/18 00:26:04;;;;;;;;;;;5.40;75.50;;;;;;5002114;28;89252;-38
2023/02/18 00:28:29;;;;;;;;;;;5.40;75.50;;;;;;5003168;28;89512;-38
2023/02/18 00:30:55;;;;;;;;;;;5.40;75.50;;;;;;5003122;28;87127;-38
2023/02/18 00:33:20;;;;;;;;;;;5.40;75.50;;;;;;5003122;28;88883;-38
2023/02/18 00:35:46;;;;;;;;;;;5.40;75.40;;;;;;5002512;28;89596;-38
2023/02/18 00:38:11;;;;;;;;;;;5.40;75.50;;;;;;5003250;28;87138;-38
2023/02/18 00:40:37;;;;;;;;;;;5.40;75.50;;;;;;5003378;28;87830;-38
2023/02/18 00:43:03;;;;;;;;;;;5.30;75.40;;;;;;5006174;28;88579;-38
2023/02/18 00:45:28;;;;;;;;;;;5.40;75.50;;;;;;5003015;28;87908;-38
2023/02/18 00:47:54;;;;;;;;;;;5.40;75.50;;;;;;5002700;28;89517;-38
2023/02/18 00:50:20;;;;;;;;;;;5.30;75.50;;;;;;5001962;28;88298;-38
2023/02/18 00:52:45;;;;;;;;;;;5.30;75.40;;;;;;5003062;28;88898;-38
2023/02/18 00:55:11;;;;;;;;;;;5.30;75.40;;;;;;5002846;28;89544;-38
2023/02/18 00:57:37;;;;;;;;;;;5.30;75.40;;;;;;5002852;28;87236;-38
2023/02/18 01:00:04;;;;;;;;;;;5.30;75.40;;;;;;5002793;28;88181;-38
2023/02/18 01:02:29;;;;;;;;;;;5.30;75.40;;;;;;5002581;28;89088;-38
2023/02/18 01:04:55;;;;;;;;;;;5.30;75.40;;;;;;5005383;28;87125;-38
2023/02/18 01:07:20;;;;;;;;;;;5.30;75.30;;;;;;5002572;28;88664;-38
2023/02/18 01:09:46;;;;;;;;;;;5.30;75.30;;;;;;5002911;28;87384;-38
2023/02/18 01:12:11;;;;;;;;;;;5.20;75.20;;;;;;5003101;28;87441;-38
2023/02/18 01:14:37;;;;;;;;;;;5.30;75.30;;;;;;5002064;28;89081;-38
2023/02/18 01:17:02;;;;;;;;;;;5.20;75.20;;;;;;5017935;28;87391;-38
2023/02/18 01:19:27;;;;;;;;;;;5.20;75.20;;;;;;5002454;28;89015;-38
2023/02/18 01:21:53;;;;;;;;;;;5.20;75.20;;;;;;5002250;28;89523;-38
2023/02/18 01:24:18;;;;;;;;;;;5.20;75.20;;;;;;5002593;28;87155;-38
2023/02/18 01:26:44;;;;;;;;;;;5.20;75.30;;;;;;5005174;28;88685;-38
2023/02/18 01:29:09;;;;;;;;;;;5.20;75.40;;;;;;5002431;28;87140;-38
2023/02/18 01:31:35;;;;;;;;;;;5.20;75.30;;;;;;5002816;28;89033;-38
2023/02/18 01:34:00;;;;;;;;;;;5.10;75.30;;;;;;5002033;28;89504;-38
2023/02/18 01:36:26;;;;;;;;;;;5.10;75.30;;;;;;5002289;28;87157;-38
2023/02/18 01:38:52;;;;;;;;;;;5.10;75.30;;;;;;5001884;28;88395;-38
2023/02/18 01:41:18;;;;;;;;;;;5.10;75.30;;;;;;5002056;28;89263;-38
2023/02/18 01:43:43;;;;;;;;;;;5.10;75.30;;;;;;5002639;28;87165;-38
2023/02/18 01:46:12;;;;;;;;;;;5.10;75.30;;;;;;5004693;28;88840;-38
2023/02/18 01:48:40;;;;;;;;;;;5.10;75.30;;;;;;5002242;28;87204;-38
2023/02/18 01:51:17;;;;;;;;;;;5.00;75.20;;;;;;5002373;28;87422;-38
2023/02/18 01:53:46;;;;;;;;;;;5.00;75.20;;;;;;5002154;28;89448;-38
2023/02/18 01:56:15;;;;;;;;;;;5.10;75.20;;;;;;5002708;28;86395;-38
2023/02/18 01:58:42;;;;;;;;;;;5.00;75.20;;;;;;5002254;28;86876;-38
2023/02/18 02:01:08;;;;;;;;;;;5.00;75.30;;;;;;5001826;28;88220;-38
2023/02/18 02:03:33;;;;;;;;;;;5.00;75.20;;;;;;5001337;28;88089;-38
2023/02/18 02:05:59;;;;;;;;;;;5.00;75.30;;;;;;5001423;28;89923;-38
2023/02/18 02:08:25;;;;;;;;;;;5.00;75.20;;;;;;5004920;28;88513;-38
2023/02/18 02:11:08;;;;;;;;;;;5.00;75.20;;;;;;5002298;28;87391;-38
2023/02/18 02:13:37;;;;;;;;;;;5.00;75.20;;;;;;5001439;28;89696;-38
2023/02/18 02:16:09;;;;;;;;;;;5.00;75.10;;;;;;5001732;28;87202;-38
2023/02/18 02:18:53;;;;;;;;;;;5.00;75.10;;;;;;5001995;28;89080;-38
2023/02/18 02:21:34;;;;;;;;;;;5.00;75.10;;;;;;5002013;28;88896;-38
2023/02/18 02:24:18;;;;;;;;;;;4.90;75.00;;;;;;5001916;28;87153;-38
2023/02/18 02:26:58;;;;;;;;;;;4.90;74.90;;;;;;5001893;28;87747;-38
2023/02/18 02:29:32;;;;;;;;;;;4.90;75.00;;;;;;5001105;28;89096;-37
2023/02/18 02:32:13;;;;;;;;;;;4.80;75.00;;;;;;5004705;28;87098;-38
2023/02/18 02:34:39;;;;;;;;;;;4.90;75.10;;;;;;5001313;28;89685;-38
2023/02/18 02:37:04;;;;;;;;;;;4.80;75.10;;;;;;5001531;28;87144;-38
2023/02/18 02:39:39;;;;;;;;;;;4.80;75.00;;;;;;5001582;28;89111;-38
2023/02/18 02:42:13;;;;;;;;;;;4.80;75.10;;;;;;5001263;28;89757;-38
2023/02/18 02:44:45;;;;;;;;;;;4.80;75.10;;;;;;5001658;28;87119;-38
2023/02/18 02:47:14;;;;;;;;;;;4.80;75.10;;;;;;5002103;28;87794;-38
2023/02/18 02:49:40;;;;;;;;;;;4.80;75.10;;;;;;5004468;28;90207;-38
2023/02/18 02:52:24;;;;;;;;;;;4.80;75.10;;;;;;5004687;28;87095;-38
2023/02/18 02:54:50;;;;;;;;;;;4.80;75.00;;;;;;5006898;28;88923;-38
2023/02/18 02:57:16;;;;;;;;;;;4.80;75.20;;;;;;5004452;28;87107;-38
2023/02/18 02:59:43;;;;;;;;;;;4.70;75.10;;;;;;5004721;28;88662;-38
2023/02/18 03:02:27;;;;;;;;;;;4.70;75.20;;;;;;5004599;28;88008;-38
2023/02/18 03:05:11;;;;;;;;;;;4.70;75.10;;;;;;5004659;28;87224;-38
2023/02/18 03:07:49;;;;;;;;;;;4.70;75.10;;;;;;5004789;28;88138;-38
2023/02/18 03:10:21;;;;;;;;;;;4.70;75.10;;;;;;5004399;28;89507;-38
2023/02/18 03:13:05;;;;;;;;;;;4.70;75.10;;;;;;5005396;28;86349;-38
2023/02/18 03:15:36;;;;;;;;;;;4.70;75.20;;;;;;5004521;28;88181;-38
2023/02/18 03:18:05;;;;;;;;;;;4.70;75.20;;;;;;5007198;28;89367;-38
2023/02/18 03:20:33;;;;;;;;;;;4.60;75.10;;;;;;5004095;28;88229;-38
2023/02/18 03:23:00;;;;;;;;;;;4.70;75.10;;;;;;5003956;28;88064;-38
2023/02/18 03:25:27;;;;;;;;;;;4.60;75.10;;;;;;5004670;28;88374;-38
2023/02/18 03:27:55;;;;;;;;;;;4.60;75.10;;;;;;5019749;28;90771;-38
2023/02/18 03:30:20;;;;;;;;;;;4.60;75.10;;;;;;5003942;28;89195;-38
2023/02/18 03:32:48;;;;;;;;;;;4.60;75.10;;;;;;5004348;28;87125;-38
2023/02/18 03:35:15;;;;;;;;;;;4.60;75.00;;;;;;5004171;28;88489;-38
2023/02/18 03:37:43;;;;;;;;;;;4.60;75.00;;;;;;5004462;28;87667;-38
2023/02/18 03:40:10;;;;;;;;;;;4.60;75.00;;;;;;5007055;28;87243;-38
2023/02/18 03:42:36;;;;;;;;;;;4.60;75.00;;;;;;5003714;28;91340;-38
2023/02/18 03:45:02;;;;;;;;;;;4.60;75.10;;;;;;5003317;28;87950;-38
2023/02/18 03:47:27;;;;;;;;;;;4.60;75.00;;;;;;5003957;28;89628;-38
2023/02/18 03:49:53;;;;;;;;;;;4.50;75.00;;;;;;5003571;28;88345;-38
2023/02/18 03:52:18;;;;;;;;;;;4.50;75.10;;;;;;5003660;28;87113;-38
2023/02/18 03:54:44;;;;;;;;;;;4.50;75.10;;;;;;5004221;28;87466;-38
2023/02/18 03:57:09;;;;;;;;;;;4.50;75.10;;;;;;5003556;28;88454;-38
2023/02/18 03:59:35;;;;;;;;;;;4.50;75.10;;;;;;5005781;28;87275;-38
2023/02/18 04:02:01;;;;;;;;;;;4.50;75.20;;;;;;5003914;28;88761;-38
2023/02/18 04:04:27;;;;;;;;;;;4.40;75.20;;;;;;5003694;28;87137;-38
2023/02/18 04:06:52;;;;;;;;;;;4.40;75.20;;;;;;5003494;28;87363;-39
2023/02/18 04:09:18;;;;;;;;;;;4.40;75.20;;;;;;5002679;28;90664;-38
2023/02/18 04:11:43;;;;;;;;;;;4.40;75.20;;;;;;5004122;28;88503;-38
2023/02/18 04:14:11;;;;;;;;;;;4.40;75.20;;;;;;5003453;28;88951;-38
2023/02/18 04:16:37;;;;;;;;;;;4.40;75.20;;;;;;5003107;28;89798;-38
2023/02/18 04:19:02;;;;;;;;;;;4.40;75.20;;;;;;5003716;28;87513;-38
2023/02/18 04:21:28;;;;;;;;;;;4.30;75.20;;;;;;5005670;28;88641;-38
2023/02/18 04:23:53;;;;;;;;;;;4.40;75.30;;;;;;5003869;28;87126;-39
2023/02/18 04:26:19;;;;;;;;;;;4.40;75.30;;;;;;5003853;28;88821;-39
2023/02/18 04:28:44;;;;;;;;;;;4.30;75.10;;;;;;5003300;28;88556;-38
2023/02/18 04:31:10;;;;;;;;;;;4.30;75.20;;;;;;5003185;28;86882;-38
2023/02/18 04:33:36;;;;;;;;;;;4.30;75.30;;;;;;5002680;28;88615;-38
2023/02/18 04:36:02;;;;;;;;;;;4.30;75.20;;;;;;5002725;28;89336;-38
2023/02/18 04:38:28;;;;;;;;;;;4.30;75.10;;;;;;5003283;28;87126;-38
2023/02/18 04:40:53;;;;;;;;;;;4.30;75.20;;;;;;5003442;28;88875;-38
2023/02/18 04:43:19;;;;;;;;;;;4.30;75.20;;;;;;5005553;28;88436;-38
2023/02/18 04:45:44;;;;;;;;;;;4.20;75.20;;;;;;5003222;28;88927;-38
2023/02/18 04:48:10;;;;;;;;;;;4.20;75.20;;;;;;5002799;28;88425;-38
2023/02/18 04:50:35;;;;;;;;;;;4.20;75.30;;;;;;5003577;28;86392;-38
2023/02/18 04:53:01;;;;;;;;;;;4.20;75.30;;;;;;5003035;28;88065;-38
2023/02/18 04:55:26;;;;;;;;;;;4.20;75.30;;;;;;5003029;28;88110;-38
2023/02/18 04:57:52;;;;;;;;;;;4.20;75.20;;;;;;5002072;28;88111;-38
2023/02/18 05:00:18;;;;;;;;;;;4.20;75.20;;;;;;5002988;28;88430;-38
2023/02/18 05:02:44;;;;;;;;;;;4.20;75.20;;;;;;5002858;28;87523;-38
2023/02/18 05:05:10;;;;;;;;;;;4.10;75.20;;;;;;5005811;28;87093;-38
2023/02/18 05:07:36;;;;;;;;;;;4.10;75.20;;;;;;5002261;28;89257;-38
2023/02/18 05:10:01;;;;;;;;;;;4.10;75.20;;;;;;5002552;28;87145;-38
2023/02/18 05:12:26;;;;;;;;;;;4.10;75.40;;;;;;5002696;28;88925;-38
2023/02/18 05:14:52;;;;;;;;;;;4.10;75.20;;;;;;5003287;28;87351;-38
2023/02/18 05:17:17;;;;;;;;;;;4.10;75.30;;;;;;5002940;28;87962;-38
2023/02/18 05:19:43;;;;;;;;;;;4.00;75.40;;;;;;5002661;28;88920;-38
2023/02/18 05:22:08;;;;;;;;;;;4.10;75.30;;;;;;5001397;28;90554;-38
2023/02/18 05:24:34;;;;;;;;;;;4.10;75.40;;;;;;5002768;28;87113;-38
2023/02/18 05:26:59;;;;;;;;;;;4.00;75.30;;;;;;5005419;28;87400;-38
2023/02/18 05:29:25;;;;;;;;;;;4.00;75.40;;;;;;5002657;28;87018;-38
2023/02/18 05:31:50;;;;;;;;;;;4.00;75.40;;;;;;5002478;28;89073;-38
2023/02/18 05:34:16;;;;;;;;;;;4.00;75.40;;;;;;5002260;28;89031;-38
2023/02/18 05:36:42;;;;;;;;;;;4.00;75.40;;;;;;5002030;28;87155;-38
2023/02/18 05:39:08;;;;;;;;;;;3.90;75.50;;;;;;5002755;28;88645;-38
2023/02/18 05:41:33;;;;;;;;;;;4.00;75.50;;;;;;5002113;28;89215;-38
2023/02/18 05:46:43;;;;;;;;;;;3.90;75.50;;;;;;5002102;28;88023;-37
2023/02/18 05:49:10;;;;;;;;;;;3.90;75.50;;;;;;5004566;28;89347;-39
2023/02/18 05:51:36;;;;;;;;;;;3.90;75.50;;;;;;5001998;28;89065;-38
2023/02/18 05:54:01;;;;;;;;;;;3.90;75.60;;;;;;5002262;28;88046;-38
2023/02/18 05:56:27;;;;;;;;;;;3.90;75.50;;;;;;5002243;28;87286;-38
2023/02/18 05:58:52;;;;;;;;;;;3.90;76.10;;;;;;5002264;28;87408;-38
2023/02/18 06:01:18;;;;;;;;;;;3.90;75.50;;;;;;5001778;28;89775;-38
2023/02/18 06:03:43;;;;;;;;;;;3.90;75.50;;;;;;5002429;28;86370;-38
2023/02/18 06:06:09;;;;;;;;;;;3.90;75.50;;;;;;5001743;28;87021;-38
2023/02/18 06:08:35;;;;;;;;;;;3.90;75.40;;;;;;5004563;28;89567;-38
2023/02/18 06:11:02;;;;;;;;;;;3.90;75.40;;;;;;5001786;28;88300;-39
2023/02/18 06:13:27;;;;;;;;;;;3.80;75.40;;;;;;5001736;28;88372;-38
2023/02/18 06:15:53;;;;;;;;;;;3.80;75.40;;;;;;5002312;28;87231;-38
2023/02/18 06:18:19;;;;;;;;;;;3.80;75.50;;;;;;5001969;28;88712;-38
2023/02/18 06:20:48;;;;;;;;;;;3.90;75.50;;;;;;5001323;28;89915;-37
2023/02/18 06:23:14;;;;;;;;;;;3.80;75.50;;;;;;5003356;28;87396;-38
2023/02/18 06:25:39;;;;;;;;;;;3.80;75.50;;;;;;5005302;28;89254;-38
2023/02/18 06:28:05;;;;;;;;;;;3.80;75.50;;;;;;5005362;28;88945;-38
2023/02/18 06:30:30;;;;;;;;;;;3.80;75.60;;;;;;5008486;28;87065;-38
2023/02/18 06:32:56;;;;;;;;;;;3.80;75.50;;;;;;5004651;28;89332;-38
2023/02/18 06:35:22;;;;;;;;;;;3.80;75.60;;;;;;5004497;28;88110;-38
2023/02/18 06:37:47;;;;;;;;;;;3.80;75.50;;;;;;5005140;28;89076;-37
2023/02/18 06:40:13;;;;;;;;;;;3.80;75.40;;;;;;5004602;28;89434;-38
2023/02/18 06:42:38;;;;;;;;;;;3.80;75.60;;;;;;5005211;28;87147;-37
2023/02/18 06:45:05;;;;;;;;;;;3.80;75.50;;;;;;5004919;28;88642;-38
2023/02/18 06:47:31;;;;;;;;;;;3.70;75.50;;;;;;5004536;28;90041;-38
2023/02/18 06:49:57;;;;;;;;;;;3.80;75.50;;;;;;5004782;28;87215;-38
2023/02/18 06:52:22;;;;;;;;;;;3.70;75.50;;;;;;5007871;28;88885;-38
2023/02/18 06:54:48;;;;;;;;;;;3.70;75.50;;;;;;5004850;28;87179;-38
2023/02/18 06:57:13;;;;;;;;;;;3.70;75.50;;;;;;5004487;28;87572;-38
2023/02/18 06:59:39;;;;;;;;;;;3.70;75.60;;;;;;5003677;28;90326;-38
2023/02/18 07:02:04;;;;;;;;;;;3.70;75.60;;;;;;5004859;28;87113;-38
2023/02/18 07:04:30;;;;;;;;;;;3.70;75.50;;;;;;5004635;28;88768;-38
2023/02/18 07:06:55;;;;;;;;;;;3.70;75.50;;;;;;5003937;28;89355;-38
2023/02/18 07:09:21;;;;;;;;;;;3.70;75.60;;;;;;5004962;28;87077;-38
2023/02/18 07:11:46;;;;;;;;;;;3.70;76.20;;;;;;5004322;28;88704;-38
2023/02/18 07:14:12;;;;;;;;;;;3.70;75.60;;;;;;5007099;28;89377;-38
2023/02/18 07:16:37;;;;;;;;;;;3.70;75.50;;;;;;5005056;28;88699;-38
2023/02/18 07:19:03;;;;;;;;;;;3.70;75.50;;;;;;5003827;28;90151;-38
2023/02/18 07:21:28;;;;;;;;;;;3.70;75.60;;;;;;5004485;28;87026;-38
2023/02/18 07:23:54;;;;;;;;;;;3.70;75.60;;;;;;5003850;28;87927;-38
2023/02/18 07:26:19;;;;;;;;;;;3.70;75.50;;;;;;5004260;28;87714;-38
2023/02/18 07:28:45;;;;;;;;;;;3.70;75.60;;;;;;5004406;28;87193;-37
2023/02/18 07:31:10;;;;;;;;;;;3.60;75.60;;;;;;5004413;28;88871;-38
2023/02/18 07:33:36;;;;;;;;;;;3.70;75.60;;;;;;5003683;28;89713;-38
2023/02/18 07:36:02;;;;;;;;;;;3.60;75.50;;;;;;5007232;28;87328;-38
2023/02/18 07:38:27;;;;;;;;;;;3.70;75.50;;;;;;5003672;28;89222;-38
2023/02/18 07:40:53;;;;;;;;;;;3.60;75.60;;;;;;5004532;28;86350;-38
2023/02/18 07:43:19;;;;;;;;;;;3.70;75.70;;;;;;5004078;28;90026;-38
2023/02/18 07:45:44;;;;;;;;;;;3.70;75.60;;;;;;5003595;28;89838;-38
2023/02/18 07:48:10;;;;;;;;;;;3.70;75.60;;;;;;5003267;28;88009;-38
2023/02/18 07:50:38;;;;;;;;;;;3.70;75.60;;;;;;5003812;28;89642;-38
2023/02/18 07:53:03;;;;;;;;;;;3.70;75.60;;;;;;5003586;28;90240;-38
2023/02/18 07:55:47;;;;;;;;;;;3.60;75.70;;;;;;5003753;28;86995;-38
2023/02/18 07:58:21;;;;;;;;;;;3.70;75.60;;;;;;5006369;28;89040;-38
2023/02/18 08:00:47;;;;;;;;;;;3.70;75.60;;;;;;5003769;28;87235;-38
2023/02/18 08:03:13;;;;;;;;;;;3.70;75.50;;;;;;5003740;28;89022;-38
2023/02/18 08:05:39;;;;;;;;;;;3.70;75.60;;;;;;5003543;28;87816;-38
2023/02/18 08:08:04;;;;;;;;;;;3.70;75.50;;;;;;5003935;28;87017;-38
2023/02/18 08:10:30;;;;;;;;;;;3.70;75.50;;;;;;5003827;28;87270;-38
2023/02/18 08:12:55;;;;;;;;;;;3.70;75.60;;;;;;5002750;28;88999;-38
2023/02/18 08:15:21;;;;;;;;;;;3.70;75.60;;;;;;5003679;28;87110;-38
2023/02/18 08:17:46;;;;;;;;;;;3.60;75.50;;;;;;5006142;28;88988;-38
2023/02/18 08:20:12;;;;;;;;;;;3.60;75.50;;;;;;5003587;28;87491;-38
2023/02/18 08:22:37;;;;;;;;;;;3.70;76.20;;;;;;5003597;28;88650;-38
2023/02/18 08:25:03;;;;;;;;;;;3.60;75.50;;;;;;5003218;28;89684;-38
2023/02/18 08:27:29;;;;;;;;;;;3.60;75.50;;;;;;5003204;28;87103;-38
2023/02/18 08:29:54;;;;;;;;;;;3.70;75.60;;;;;;5004085;28;88006;-38
2023/02/18 08:32:20;;;;;;;;;;;3.70;75.50;;;;;;5002918;28;89736;-38
2023/02/18 08:34:46;;;;;;;;;;;3.70;75.60;;;;;;5003281;28;87157;-38
2023/02/18 08:37:11;;;;;;;;;;;3.70;76.20;;;;;;5002571;28;88692;-38
2023/02/18 08:39:37;;;;;;;;;;;3.70;75.60;;;;;;5021186;28;89468;-38
2023/02/18 08:42:03;;;;;;;;;;;3.70;75.60;;;;;;5003243;28;88696;-38
2023/02/18 08:44:28;;;;;;;;;;;3.70;75.60;;;;;;5002907;28;90224;-38
2023/02/18 08:46:54;;;;;;;;;;;3.70;75.60;;;;;;5001919;28;87153;-38
2023/02/18 08:49:19;;;;;;;;;;;3.70;75.60;;;;;;5003381;28;87446;-38
2023/02/18 08:51:46;;;;;;;;;;;3.70;75.70;;;;;;5002742;28;88878;-38
2023/02/18 08:54:11;;;;;;;;;;;3.60;75.70;;;;;;5003719;28;86425;-38
2023/02/18 08:56:38;;;;;;;;;;;3.70;75.80;;;;;;5003162;28;87283;-38
2023/02/18 08:59:03;;;;;;;;;;;3.70;75.80;;;;;;5002439;28;88523;-38
2023/02/18 09:01:29;;;;;;;;;;;3.70;75.80;;;;;;5005139;28;88041;-38
2023/02/18 09:03:54;;;;;;;;;;;3.60;75.80;;;;;;5002589;28;88665;-38
2023/02/18 09:06:20;;;;;;;;;;;3.70;75.90;;;;;;5002321;28;87292;-38
2023/02/18 09:08:45;;;;;;;;;;;3.60;75.90;;;;;;5002735;28;87686;-38
2023/02/18 09:11:11;;;;;;;;;;;3.60;75.90;;;;;;5002590;28;89422;-38
2023/02/18 09:13:37;;;;;;;;;;;3.70;75.90;;;;;;5002587;28;87038;-38
2023/02/18 09:16:04;;;;;;;;;;;3.70;75.80;;;;;;5002745;28;87411;-38
2023/02/18 09:18:30;;;;;;;;;;;3.70;75.80;;;;;;5002788;28;90243;-38
2023/02/18 09:20:57;;;;;;;;;;;3.70;75.80;;;;;;5002451;28;87135;-38
2023/02/18 09:23:23;;;;;;;;;;;3.70;75.80;;;;;;5005214;28;88659;-38
2023/02/18 09:25:48;;;;;;;;;;;3.70;75.80;;;;;;5002076;28;87973;-38
2023/02/18 09:28:14;;;;;;;;;;;3.70;75.80;;;;;;5002653;28;88998;-38
2023/02/18 09:30:39;;;;;;;;;;;3.70;75.80;;;;;;5002123;28;89902;-38
2023/02/18 09:33:05;;;;;;;;;;;3.70;75.80;;;;;;5002149;28;87196;-38
2023/02/18 09:35:31;;;;;;;;;;;3.70;75.90;;;;;;5002681;28;87359;-38
2023/02/18 09:37:56;;;;;;;;;;;3.70;75.80;;;;;;5002080;28;89435;-38
2023/02/18 09:40:26;;;;;;;;;;;3.70;75.80;;;;;;5002209;28;87175;-38
2023/02/18 09:42:53;;;;;;;;;;;3.70;75.80;;;;;;5002938;28;87366;-38
2023/02/18 09:45:20;;;;;;;;;;;3.70;75.80;;;;;;5004853;28;89066;-38
2023/02/18 09:47:46;;;;;;;;;;;3.70;75.80;;;;;;5002210;28;87514;-38
2023/02/18 09:50:20;;;;;;;;;;;3.70;75.80;;;;;;5001394;28;90559;-38
2023/02/18 09:52:46;;;;;;;;;;;3.80;75.80;;;;;;5002175;28;87043;-38
2023/02/18 09:55:21;;;;;;;;;;;3.80;75.80;;;;;;5002135;28;88704;-38
2023/02/18 09:57:49;;;;;;;;;;;3.80;75.80;;;;;;5003766;28;89173;-39
2023/02/18 10:00:20;;;;;;;;;;;3.70;75.90;;;;;;5005406;28;86980;-38
2023/02/18 10:02:52;;;;;;;;;;;3.70;76.00;;;;;;5006000;28;89118;-38
2023/02/18 10:05:18;;;;;;;;;;;3.70;76.10;;;;;;5004919;28;89581;-38
2023/02/18 10:07:44;;;;;;;;;;;3.70;76.00;;;;;;5009128;28;86156;-38
2023/02/18 10:10:22;;;;;;;;;;;3.80;76.10;;;;;;5005305;28;88359;-38
2023/02/18 10:12:48;;;;;;;;;;;3.80;76.10;;;;;;5005444;28;87512;-38
2023/02/18 10:15:22;;;;;;;;;;;3.80;76.10;;;;;;5005085;28;88630;-38
2023/02/18 10:17:48;;;;;;;;;;;3.80;76.10;;;;;;5005211;28;89351;-38
2023/02/18 10:20:18;;;;;;;;;;;3.80;76.10;;;;;;5005383;28;87089;-38
2023/02/18 10:22:44;;;;;;;;;;;3.80;76.10;;;;;;5005562;28;88696;-38
2023/02/18 10:25:16;;;;;;;;;;;3.80;76.10;;;;;;5004566;28;89620;-38
2023/02/18 10:27:41;;;;;;;;;;;3.90;76.20;;;;;;5008266;28;87018;-38
2023/02/18 10:30:19;;;;;;;;;;;3.90;76.20;;;;;;5005107;28;87361;-38
2023/02/18 10:32:45;;;;;;;;;;;3.90;76.20;;;;;;5005724;28;86410;-39
2023/02/18 10:35:20;;;;;;;;;;;3.90;76.40;;;;;;5005495;28;87065;-38
2023/02/18 10:37:53;;;;;;;;;;;3.80;76.20;;;;;;5004555;28;89250;-38
2023/02/18 10:40:25;;;;;;;;;;;3.80;76.10;;;;;;5004754;28;87997;-38
2023/02/18 10:42:50;;;;;;;;;;;3.90;76.20;;;;;;5003893;28;91967;-38
2023/02/18 10:45:22;;;;;;;;;;;3.90;76.30;;;;;;5004823;28;89472;-38
2023/02/18 10:47:50;;;;;;;;;;;3.90;76.20;;;;;;5005055;28;87156;-38
2023/02/18 10:50:22;;;;;;;;;;;4.00;76.30;;;;;;5007492;28;87891;-38
2023/02/18 10:52:50;;;;;;;;;;;3.90;76.20;;;;;;5004913;28;87163;-38
2023/02/18 10:55:17;;;;;;;;;;;4.00;76.20;;;;;;5005079;28;88848;-38
2023/02/18 10:57:53;;;;;;;;;;;4.00;76.30;;;;;;5004765;28;89185;-38
2023/02/18 11:00:22;;;;;;;;;;;4.00;76.30;;;;;;5004814;28;87137;-38
2023/02/18 11:03:23;;;;;;;;;;;4.00;76.40;;;;;;5004673;28;88718;-38
2023/02/18 11:05:50;;;;;;;;;;;4.00;76.40;;;;;;4961266;28;88998;-38
2023/02/18 11:08:24;;;;;;;;;;;4.00;76.60;;;;;;4995647;28;87457;-38
2023/02/18 11:10:50;;;;;;;;;;;4.10;76.80;;;;;;5004576;28;88764;-38
2023/02/18 11:13:17;;;;;;;;;;;4.10;76.80;;;;;;5006899;28;89801;-38
2023/02/18 11:15:53;;;;;;;;;;;4.10;76.80;;;;;;5004518;28;88709;-38
2023/02/18 11:18:24;;;;;;;;;;;4.10;77.30;;;;;;5004205;28;89185;-38
2023/02/18 11:21:17;;;;;;;;;;;4.10;76.90;;;;;;5004647;28;87224;-38
2023/02/18 11:23:46;;;;;;;;;;;4.10;77.00;;;;;;5004880;28;88823;-38
2023/02/18 11:26:13;;;;;;;;;;;4.10;77.20;;;;;;5003954;28;89175;-38
2023/02/18 11:28:46;;;;;;;;;;;4.10;77.20;;;;;;5004542;28;87226;-38
2023/02/18 11:31:18;;;;;;;;;;;4.10;77.30;;;;;;5003655;28;87960;-38
2023/02/18 11:33:47;;;;;;;;;;;4.10;77.30;;;;;;5003877;28;89210;-38
2023/02/18 11:36:17;;;;;;;;;;;4.10;77.40;;;;;;5006701;28;87093;-38
2023/02/18 11:38:48;;;;;;;;;;;4.20;77.40;;;;;;5003838;28;89214;-38
2023/02/18 11:41:18;;;;;;;;;;;4.20;77.40;;;;;;5004208;28;87038;-38
2023/02/18 11:43:48;;;;;;;;;;;4.20;77.50;;;;;;5004187;28;88719;-38
2023/02/18 11:46:18;;;;;;;;;;;4.20;77.50;;;;;;5003793;28;89413;-38
2023/02/18 11:48:44;;;;;;;;;;;4.20;77.60;;;;;;5004298;28;86400;-38
2023/02/18 11:51:22;;;;;;;;;;;4.30;77.70;;;;;;5004375;28;87031;-38
2023/02/18 11:54:01;;;;;;;;;;;4.30;77.70;;;;;;5003682;28;89510;-38
2023/02/18 11:56:28;;;;;;;;;;;4.30;77.70;;;;;;5003216;28;88072;-38
2023/02/18 11:58:54;;;;;;;;;;;4.30;77.70;;;;;;5006531;28;88112;-38
2023/02/18 12:01:19;;;;;;;;;;;4.30;77.80;;;;;;5003574;28;87118;-38
2023/02/18 12:03:52;;;;;;;;;;;4.30;77.90;;;;;;5003872;28;88866;-38
2023/02/18 12:06:23;;;;;;;;;;;4.40;77.90;;;;;;5003050;28;89975;-38
2023/02/18 12:08:55;;;;;;;;;;;4.30;78.00;;;;;;5003714;28;87145;-38
2023/02/18 12:11:27;;;;;;;;;;;4.40;78.00;;;;;;5003859;28;87051;-38
2023/02/18 12:13:54;;;;;;;;;;;4.40;78.10;;;;;;5003717;28;88508;-38
2023/02/18 12:16:39;;;;;;;;;;;4.40;78.00;;;;;;5003824;28;87238;-38
2023/02/18 12:19:13;;;;;;;;;;;4.40;78.20;;;;;;5006314;28;88548;-38
2023/02/18 12:21:54;;;;;;;;;;;4.50;78.30;;;;;;5001866;28;88590;-38
2023/02/18 12:24:26;;;;;;;;;;;4.50;78.30;;;;;;5003520;28;89638;-38
2023/02/18 12:26:59;;;;;;;;;;;4.50;78.40;;;;;;5003134;28;89520;-38
2023/02/18 12:29:27;;;;;;;;;;;4.50;78.50;;;;;;5003513;28;87280;-38
2023/02/18 12:32:02;;;;;;;;;;;4.50;78.70;;;;;;5003483;28;88979;-38
2023/02/18 12:34:37;;;;;;;;;;;4.50;78.70;;;;;;5003005;28;89437;-39
2023/02/18 12:37:17;;;;;;;;;;;4.60;78.60;;;;;;5003019;28;87105;-39
2023/02/18 12:39:45;;;;;;;;;;;4.60;78.60;;;;;;5003684;28;88839;-38
2023/02/18 12:42:11;;;;;;;;;;;4.60;78.80;;;;;;5005946;28;88216;-38
2023/02/18 12:44:43;;;;;;;;;;;4.60;78.80;;;;;;5003503;28;86983;-38
2023/02/18 12:47:17;;;;;;;;;;;4.60;78.70;;;;;;5001992;28;90450;-38
2023/02/18 12:50:02;;;;;;;;;;;4.60;78.80;;;;;;5003113;28;87292;-38
2023/02/18 12:52:28;;;;;;;;;;;4.70;78.90;;;;;;5002613;28;86949;-38
2023/02/18 12:54:56;;;;;;;;;;;4.70;79.00;;;;;;5002851;28;89425;-38
2023/02/18 12:57:21;;;;;;;;;;;4.70;79.10;;;;;;5003081;28;87126;-38
2023/02/18 12:59:55;;;;;;;;;;;4.70;78.90;;;;;;5002423;28;88835;-38
2023/02/18 13:02:20;;;;;;;;;;;4.70;79.60;;;;;;5002732;28;88396;-38
2023/02/18 13:05:04;;;;;;;;;;;4.70;79.00;;;;;;5006183;28;86424;-38
2023/02/18 13:07:33;;;;;;;;;;;4.80;79.00;;;;;;5001943;28;89631;-38
2023/02/18 13:10:04;;;;;;;;;;;4.80;79.30;;;;;;5002766;28;87138;-38
2023/02/18 13:12:32;;;;;;;;;;;4.80;79.20;;;;;;5002024;28;88117;-38
2023/02/18 13:15:03;;;;;;;;;;;4.80;79.20;;;;;;5002452;28;89462;-39
2023/02/18 13:17:32;;;;;;;;;;;4.80;79.30;;;;;;5002869;28;87042;-38
2023/02/18 13:20:00;;;;;;;;;;;4.90;79.10;;;;;;5002955;28;88912;-38
2023/02/18 13:22:27;;;;;;;;;;;4.90;79.00;;;;;;5002265;28;89660;-38
2023/02/18 13:24:54;;;;;;;;;;;4.90;79.10;;;;;;5002566;28;87164;-38
2023/02/18 13:27:38;;;;;;;;;;;4.90;79.30;;;;;;5004961;28;88858;-38
2023/02/18 13:30:16;;;;;;;;;;;4.90;79.30;;;;;;5002912;28;86565;-38
2023/02/18 13:32:47;;;;;;;;;;;5.00;79.40;;;;;;5002372;28;88000;-39
2023/02/18 13:35:12;;;;;;;;;;;5.00;79.30;;;;;;5001904;28;89279;-39
2023/02/18 13:38:02;;;;;;;;;;;5.00;79.40;;;;;;5001564;28;89277;-39
2023/02/18 13:40:29;;;;;;;;;;;5.00;79.40;;;;;;5002612;28;90187;-38
2023/02/18 13:43:14;;;;;;;;;;;5.00;79.40;;;;;;5002245;28;89617;-38
2023/02/18 13:45:40;;;;;;;;;;;5.00;79.50;;;;;;5002416;28;87176;-38
2023/02/18 13:48:21;;;;;;;;;;;5.00;80.10;;;;;;5002154;28;88622;-39
2023/02/18 13:50:46;;;;;;;;;;;5.00;79.40;;;;;;5004981;28;89429;-38
2023/02/18 13:53:19;;;;;;;;;;;5.00;79.80;;;;;;5002272;28;88516;-38
2023/02/18 13:55:50;;;;;;;;;;;5.10;79.80;;;;;;5002581;28;88370;-38
2023/02/18 13:58:20;;;;;;;;;;;5.10;79.70;;;;;;5001898;28;87030;-38
2023/02/18 14:01:08;;;;;;;;;;;5.10;79.60;;;;;;5002457;28;88816;-38
2023/02/18 14:03:48;;;;;;;;;;;5.10;79.80;;;;;;5001277;28;90113;-38
2023/02/18 14:06:14;;;;;;;;;;;5.20;79.80;;;;;;5001599;28;86967;-39
2023/02/18 14:08:40;;;;;;;;;;;5.20;79.90;;;;;;5002565;28;87506;-38
2023/02/18 14:11:11;;;;;;;;;;;5.20;79.80;;;;;;5001485;28;89091;-38
2023/02/18 14:13:39;;;;;;;;;;;5.20;79.90;;;;;;5004695;28;87161;-38
2023/02/18 14:16:05;;;;;;;;;;;5.20;79.90;;;;;;5001701;28;89480;-38
2023/02/18 14:18:32;;;;;;;;;;;5.30;80.00;;;;;;5002310;28;86977;-38
2023/02/18 14:21:12;;;;;;;;;;;5.30;79.90;;;;;;5002405;28;87538;-39
2023/02/18 14:23:37;;;;;;;;;;;5.30;80.00;;;;;;5001467;28;88330;-38
2023/02/18 14:26:18;;;;;;;;;;;5.30;80.00;;;;;;5001743;28;86998;-38
2023/02/18 14:28:54;;;;;;;;;;;5.30;80.10;;;;;;5001308;28;88728;-38
2023/02/18 14:31:54;;;;;;;;;;;5.40;80.10;;;;;;5001651;28;89734;-39
2023/02/18 14:34:23;;;;;;;;;;;5.40;80.10;;;;;;4962333;28;87032;-38
2023/02/18 14:36:48;;;;;;;;;;;5.40;80.20;;;;;;4993273;28;88063;-38
2023/02/18 14:39:26;;;;;;;;;;;5.40;80.10;;;;;;5001782;28;87149;-39
2023/02/18 14:41:59;;;;;;;;;;;5.40;80.20;;;;;;5001656;28;88960;-39